Time;durP1;ratioP1;P1;durP2;ratioP2;P2;SDS_P1;SDS_P2;PMS_P1;PMS_P2;Temp;Humidity;BMP_temperature;BMP_pressure;BME280_temperature;BME280_humidity;BME280_pressure;Samples;Min_cycle;Max_cycle;Signal;HPM_P1;HPM_P2
2022/08/02 00:01:33;;;;;;;1.48;1.40;;;21.30;99.90;;;;;;4936934;29;20506;-49
2022/08/02 00:03:59;;;;;;;1.75;1.20;;;21.40;99.90;;;;;;4936207;29;20036;-46
2022/08/02 00:06:24;;;;;;;1.60;1.50;;;21.50;99.90;;;;;;4936738;29;20110;-46
2022/08/02 00:08:50;;;;;;;3.15;1.70;;;21.50;99.90;;;;;;4936688;29;20032;-48
2022/08/02 00:11:15;;;;;;;4.18;2.03;;;21.50;99.90;;;;;;4936579;29;20167;-48
2022/08/02 00:13:41;;;;;;;2.45;1.88;;;21.50;99.90;;;;;;4936139;29;20039;-46
2022/08/02 00:16:07;;;;;;;3.17;1.88;;;21.50;99.90;;;;;;4936697;29;20045;-45
2022/08/02 00:18:32;;;;;;;3.45;1.75;;;21.40;99.90;;;;;;4936442;29;20056;-45
2022/08/02 00:20:58;;;;;;;2.00;1.90;;;21.30;99.90;;;;;;4936468;29;20028;-44
2022/08/02 00:23:23;;;;;;;2.17;1.67;;;21.20;99.90;;;;;;4935957;29;20035;-43
2022/08/02 00:25:49;;;;;;;2.00;1.90;;;21.20;99.90;;;;;;4934938;29;20035;-44
2022/08/02 00:28:14;;;;;;;1.65;1.55;;;21.10;99.90;;;;;;4936209;29;20052;-44
2022/08/02 00:30:40;;;;;;;2.45;1.88;;;21.00;99.90;;;;;;4936638;29;20034;-44
2022/08/02 00:33:07;;;;;;;3.20;1.60;;;20.90;99.90;;;;;;4936593;29;20494;-45
2022/08/02 00:35:33;;;;;;;1.40;1.40;;;20.90;99.90;;;;;;4935102;29;20047;-43
2022/08/02 00:37:59;;;;;;;3.00;1.50;;;20.80;99.90;;;;;;4936227;29;20474;-43
2022/08/02 00:40:24;;;;;;;1.70;1.60;;;20.80;99.90;;;;;;4935807;29;20083;-45
2022/08/02 00:43:10;;;;;;;2.13;1.63;;;20.80;99.90;;;;;;4936239;29;20107;-44
2022/08/02 00:45:40;;;;;;;1.65;1.65;;;20.80;99.90;;;;;;4936023;29;20023;-46
2022/08/02 00:48:07;;;;;;;1.80;1.70;;;20.80;99.90;;;;;;4936444;29;20024;-44
2022/08/02 00:50:33;;;;;;;1.35;1.35;;;20.80;99.90;;;;;;4935705;29;20031;-46
2022/08/02 00:52:59;;;;;;;1.70;1.60;;;20.80;99.90;;;;;;4935460;29;20035;-43
2022/08/02 00:55:25;;;;;;;1.67;1.58;;;20.70;99.90;;;;;;4935882;29;20382;-50
2022/08/02 00:57:51;;;;;;;1.75;1.65;;;20.70;99.90;;;;;;4935897;29;20023;-46
2022/08/02 01:00:17;;;;;;;1.90;1.50;;;20.70;99.90;;;;;;4934465;29;20031;-48
2022/08/02 01:02:42;;;;;;;2.17;1.90;;;20.70;99.90;;;;;;4935659;29;20106;-46
2022/08/02 01:05:08;;;;;;;1.60;1.50;;;20.70;99.90;;;;;;4935435;29;20095;-45
2022/08/02 01:07:34;;;;;;;1.35;1.35;;;20.70;99.90;;;;;;4935669;29;20516;-44
2022/08/02 01:09:59;;;;;;;2.17;1.80;;;20.70;99.90;;;;;;4935722;29;20517;-44
2022/08/02 01:12:26;;;;;;;2.75;1.88;;;20.60;99.90;;;;;;4935578;29;20155;-47
2022/08/02 01:14:55;;;;;;;2.75;1.83;;;20.60;99.90;;;;;;4935203;29;20086;-46
2022/08/02 01:17:44;;;;;;;1.50;1.50;;;20.60;99.90;;;;;;4935688;29;20393;-49
2022/08/02 01:20:31;;;;;;;1.90;1.80;;;20.60;99.90;;;;;;4936282;29;20437;-46
2022/08/02 01:23:21;;;;;;;3.33;1.85;;;20.50;99.90;;;;;;4935233;29;20031;-44
2022/08/02 01:26:22;;;;;;;1.70;1.60;;;20.50;99.90;;;;;;4935410;29;20147;-47
2022/08/02 01:29:05;;;;;;;1.77;1.67;;;20.50;99.90;;;;;;4935470;29;20032;-47
2022/08/02 01:31:53;;;;;;;2.33;1.80;;;20.50;99.90;;;;;;4935406;29;20062;-47
2022/08/02 01:34:37;;;;;;;3.08;1.67;;;20.40;99.90;;;;;;4934749;29;20126;-52
2022/08/02 01:37:20;;;;;;;2.00;1.80;;;20.40;99.90;;;;;;4935146;29;20031;-50
2022/08/02 01:39:50;;;;;;;1.70;1.60;;;20.40;99.90;;;;;;4934859;29;20031;-49
2022/08/02 01:42:18;;;;;;;3.58;1.83;;;20.40;99.90;;;;;;4935225;29;20036;-46
2022/08/02 01:44:45;;;;;;;2.13;2.00;;;20.30;99.90;;;;;;4934752;29;20043;-44
2022/08/02 01:47:18;;;;;;;1.58;1.58;;;20.30;99.90;;;;;;4934958;29;20070;-43
2022/08/02 01:49:52;;;;;;;2.60;1.80;;;20.30;99.90;;;;;;4935016;29;20039;-45
2022/08/02 01:52:20;;;;;;;3.28;1.58;;;20.30;99.90;;;;;;4934746;29;20095;-47
2022/08/02 01:54:50;;;;;;;1.83;1.73;;;20.30;99.90;;;;;;4934790;29;20482;-49
2022/08/02 01:57:19;;;;;;;2.22;1.83;;;20.30;99.90;;;;;;4934729;29;20464;-46
2022/08/02 01:59:47;;;;;;;2.95;1.83;;;20.20;99.90;;;;;;4934660;29;20478;-48
2022/08/02 02:02:15;;;;;;;4.47;1.77;;;20.10;99.90;;;;;;4934237;29;20035;-48
2022/08/02 02:04:42;;;;;;;3.55;2.08;;;20.10;99.90;;;;;;4934201;29;20039;-46
2022/08/02 02:07:09;;;;;;;2.40;2.30;;;20.10;99.90;;;;;;4934704;29;20032;-48
2022/08/02 02:09:37;;;;;;;2.28;2.17;;;20.00;99.90;;;;;;4934551;29;20542;-47
2022/08/02 02:12:04;;;;;;;1.90;1.80;;;20.00;99.90;;;;;;4934349;29;20062;-48
2022/08/02 02:14:31;;;;;;;4.03;1.80;;;20.00;99.90;;;;;;4934067;29;20036;-51
2022/08/02 02:16:59;;;;;;;2.20;2.00;;;19.90;99.90;;;;;;4934338;29;20505;-48
2022/08/02 02:19:26;;;;;;;2.10;2.00;;;20.00;99.90;;;;;;4934504;29;20405;-45
2022/08/02 02:21:51;;;;;;;2.50;2.30;;;20.00;99.90;;;;;;4934490;29;20028;-49
2022/08/02 02:24:17;;;;;;;1.63;1.63;;;19.90;99.90;;;;;;4934037;29;20026;-45
2022/08/02 02:26:45;;;;;;;2.00;1.90;;;19.90;99.90;;;;;;4934262;29;20386;-47
2022/08/02 02:29:12;;;;;;;2.35;2.20;;;19.90;99.90;;;;;;4934709;29;20082;-42
2022/08/02 02:31:41;;;;;;;2.45;2.22;;;19.90;99.90;;;;;;4934060;29;20034;-47
2022/08/02 02:34:24;;;;;;;1.98;1.88;;;19.90;99.90;;;;;;4933749;29;20055;-45
2022/08/02 02:36:51;;;;;;;2.40;2.20;;;19.80;99.90;;;;;;4934520;29;20031;-46
2022/08/02 02:39:21;;;;;;;6.00;2.65;;;19.70;99.90;;;;;;4934405;29;20028;-48
2022/08/02 02:41:48;;;;;;;2.10;2.00;;;19.70;99.90;;;;;;4933911;29;20023;-44
2022/08/02 02:44:18;;;;;;;3.83;2.58;;;19.60;99.90;;;;;;4933645;29;20039;-49
2022/08/02 02:46:46;;;;;;;2.78;2.60;;;19.60;99.90;;;;;;4934432;29;20039;-48
2022/08/02 02:49:13;;;;;;;7.00;2.47;;;19.60;99.90;;;;;;4934216;29;20441;-47
2022/08/02 02:51:39;;;;;;;4.25;2.20;;;19.60;99.90;;;;;;4934120;29;20450;-47
2022/08/02 02:54:07;;;;;;;2.50;2.35;;;19.60;99.90;;;;;;4933715;29;20028;-47
2022/08/02 02:56:34;;;;;;;2.50;2.30;;;19.60;99.90;;;;;;4933911;29;20031;-46
2022/08/02 02:58:59;;;;;;;7.85;3.10;;;19.50;99.90;;;;;;4934129;29;20103;-49
2022/08/02 03:01:29;;;;;;;6.55;3.67;;;19.40;99.90;;;;;;4934363;29;20043;-43
2022/08/02 03:03:58;;;;;;;4.30;2.70;;;19.20;99.90;;;;;;4960039;23;20043;-50
2022/08/02 03:06:24;;;;;;;2.53;2.30;;;19.20;99.90;;;;;;4952944;28;20044;-47
2022/08/02 03:08:50;;;;;;;3.08;2.33;;;19.20;99.90;;;;;;4951854;29;20027;-48
2022/08/02 03:11:16;;;;;;;3.25;2.58;;;19.20;99.90;;;;;;4953268;28;20027;-48
2022/08/02 03:13:42;;;;;;;4.70;2.78;;;19.20;99.90;;;;;;4956413;28;20439;-51
2022/08/02 03:16:09;;;;;;;2.65;2.45;;;19.20;99.90;;;;;;4956900;28;20107;-48
2022/08/02 03:18:36;;;;;;;2.45;2.25;;;19.20;99.90;;;;;;4956643;28;20061;-49
2022/08/02 03:21:08;;;;;;;4.30;2.80;;;19.20;99.90;;;;;;4955431;29;20047;-49
2022/08/02 03:23:34;;;;;;;6.50;2.50;;;19.20;99.90;;;;;;4956268;28;20113;-50
2022/08/02 03:26:00;;;;;;;3.22;2.92;;;19.20;99.90;;;;;;4956467;28;20023;-46
2022/08/02 03:28:26;;;;;;;4.93;2.70;;;19.20;99.90;;;;;;4956574;28;20408;-48
2022/08/02 03:30:52;;;;;;;2.88;2.63;;;19.10;99.90;;;;;;4956604;28;20031;-47
2022/08/02 03:33:19;;;;;;;5.07;2.45;;;19.10;99.90;;;;;;4956387;28;20035;-48
2022/08/02 03:35:47;;;;;;;2.83;2.50;;;19.20;99.90;;;;;;4956112;28;20023;-50
2022/08/02 03:38:14;;;;;;;5.22;2.42;;;19.10;99.90;;;;;;4956429;28;20098;-46
2022/08/02 03:40:42;;;;;;;2.65;2.35;;;19.10;99.90;;;;;;4955976;28;20019;-47
2022/08/02 03:43:09;;;;;;;4.28;2.70;;;19.20;99.90;;;;;;4955950;28;20126;-52
2022/08/02 03:45:37;;;;;;;6.00;3.13;;;19.20;99.90;;;;;;4956297;28;20078;-48
2022/08/02 03:48:03;;;;;;;8.50;2.70;;;19.10;99.90;;;;;;4956111;28;20065;-51
2022/08/02 03:50:30;;;;;;;2.80;2.60;;;19.00;99.90;;;;;;4956169;28;20043;-53
2022/08/02 03:52:56;;;;;;;3.35;3.05;;;19.00;99.90;;;;;;4955961;28;20023;-54
2022/08/02 03:55:21;;;;;;;5.30;3.40;;;19.00;99.90;;;;;;4955477;28;20023;-48
2022/08/02 03:57:47;;;;;;;4.25;3.08;;;19.00;99.90;;;;;;4956060;28;20035;-48
2022/08/02 04:00:19;;;;;;;3.25;2.95;;;19.00;99.90;;;;;;4954660;28;20101;-46
2022/08/02 04:02:45;;;;;;;3.55;3.15;;;19.00;99.90;;;;;;4955851;28;20027;-48
2022/08/02 04:05:11;;;;;;;4.20;2.67;;;19.00;99.90;;;;;;4955384;28;20043;-51
2022/08/02 04:07:37;;;;;;;2.95;2.75;;;19.00;99.90;;;;;;4955760;28;20035;-50
2022/08/02 04:10:04;;;;;;;3.20;2.90;;;19.00;99.90;;;;;;4955884;28;20485;-48
2022/08/02 04:12:29;;;;;;;3.15;2.95;;;19.00;99.90;;;;;;4955908;28;20466;-47
2022/08/02 04:14:56;;;;;;;3.17;2.95;;;19.00;99.90;;;;;;4955550;28;20114;-44
2022/08/02 04:17:22;;;;;;;5.95;2.53;;;18.90;99.90;;;;;;4956039;28;20102;-50
2022/08/02 04:19:52;;;;;;;3.08;2.80;;;19.00;99.90;;;;;;4954864;29;20027;-48
2022/08/02 04:22:24;;;;;;;3.72;2.42;;;19.00;99.90;;;;;;4955920;28;20024;-49
2022/08/02 04:24:53;;;;;;;6.30;2.80;;;19.00;99.90;;;;;;4955177;28;20034;-48
2022/08/02 04:27:19;;;;;;;2.72;2.58;;;19.10;99.90;;;;;;4955612;29;20035;-47
2022/08/02 04:29:46;;;;;;;2.70;2.50;;;19.10;99.90;;;;;;4955852;28;20389;-47
2022/08/02 04:32:12;;;;;;;2.60;2.20;;;19.10;99.90;;;;;;4955807;28;20026;-47
2022/08/02 04:34:37;;;;;;;2.30;2.20;;;19.10;99.90;;;;;;4955090;28;20027;-49
2022/08/02 04:37:04;;;;;;;2.85;2.65;;;19.10;99.90;;;;;;4955480;28;20074;-44
2022/08/02 04:39:29;;;;;;;3.20;2.90;;;19.10;99.90;;;;;;4954380;29;20170;-51
2022/08/02 04:41:55;;;;;;;2.55;2.35;;;19.10;99.90;;;;;;4955230;28;20744;-49
2022/08/02 04:44:20;;;;;;;3.38;3.08;;;19.10;99.90;;;;;;4954623;28;20034;-51
2022/08/02 04:46:46;;;;;;;3.58;2.50;;;19.00;99.90;;;;;;4955029;28;20400;-51
2022/08/02 04:49:12;;;;;;;2.70;2.50;;;19.10;99.90;;;;;;4953756;28;20034;-47
2022/08/02 04:51:40;;;;;;;3.50;2.45;;;19.10;99.90;;;;;;4954955;28;20596;-49
2022/08/02 04:54:07;;;;;;;3.33;3.05;;;19.20;99.90;;;;;;4954240;28;20404;-48
2022/08/02 04:56:33;;;;;;;2.95;2.75;;;19.20;99.90;;;;;;4955130;28;20027;-50
2022/08/02 04:58:58;;;;;;;3.15;2.95;;;19.30;99.90;;;;;;4954886;28;20374;-52
2022/08/02 05:01:24;;;;;;;2.38;2.17;;;19.70;99.90;;;;;;4955178;28;20033;-48
2022/08/02 05:03:49;;;;;;;3.03;2.78;;;20.30;99.90;;;;;;4954573;28;20082;-47
2022/08/02 05:06:15;;;;;;;2.65;2.38;;;20.90;99.90;;;;;;4954967;28;20039;-52
2022/08/02 05:08:41;;;;;;;3.65;2.15;;;21.40;99.90;;;;;;4954535;28;20034;-49
2022/08/02 05:11:06;;;;;;;3.33;2.40;;;21.80;99.90;;;;;;4954605;28;20560;-45
2022/08/02 05:13:32;;;;;;;3.33;3.13;;;22.20;99.90;;;;;;4953281;28;20027;-50
2022/08/02 05:16:00;;;;;;;2.33;2.13;;;22.60;99.90;;;;;;4954591;28;20493;-50
2022/08/02 05:18:27;;;;;;;3.50;2.53;;;22.80;99.90;;;;;;4954436;28;20035;-50
2022/08/02 05:20:52;;;;;;;2.65;2.45;;;22.80;99.90;;;;;;4954611;28;20027;-48
2022/08/02 05:23:18;;;;;;;3.22;2.17;;;22.60;99.90;;;;;;4954449;28;20195;-48
2022/08/02 05:25:43;;;;;;;2.47;2.22;;;22.60;99.90;;;;;;4954235;28;20034;-47
2022/08/02 05:28:09;;;;;;;3.38;2.13;;;22.60;99.90;;;;;;4954361;28;20050;-46
2022/08/02 05:30:35;;;;;;;2.75;2.55;;;22.80;99.90;;;;;;4957173;28;20023;-51
2022/08/02 05:33:00;;;;;;;4.47;2.60;;;23.00;99.90;;;;;;4954626;28;20031;-49
2022/08/02 05:35:26;;;;;;;2.78;2.55;;;23.20;99.90;;;;;;4953320;28;20026;-50
2022/08/02 05:37:51;;;;;;;6.65;2.85;;;23.50;99.90;;;;;;4954177;28;20057;-49
2022/08/02 05:40:18;;;;;;;3.38;2.90;;;24.00;99.90;;;;;;4954196;28;20030;-48
2022/08/02 05:42:43;;;;;;;3.88;2.53;;;24.50;99.80;;;;;;4953998;28;20031;-49
2022/08/02 05:45:09;;;;;;;3.85;2.35;;;24.70;99.50;;;;;;4953578;28;20043;-45
2022/08/02 05:47:35;;;;;;;3.30;2.38;;;24.90;99.00;;;;;;4954094;28;20023;-48
2022/08/02 05:50:01;;;;;;;3.83;2.60;;;25.10;98.70;;;;;;4954069;28;20039;-51
2022/08/02 05:52:44;;;;;;;3.35;2.22;;;25.50;98.30;;;;;;4953966;28;20046;-49
2022/08/02 05:55:17;;;;;;;3.67;2.42;;;26.00;97.10;;;;;;4953600;28;20089;-51
2022/08/02 05:57:42;;;;;;;2.85;2.30;;;26.70;96.20;;;;;;4953905;28;20027;-49
2022/08/02 06:00:12;;;;;;;2.45;2.15;;;27.00;95.60;;;;;;4953816;28;20114;-48
2022/08/02 06:03:08;;;;;;;3.80;2.42;;;27.50;94.60;;;;;;4953703;28;20393;-48
2022/08/02 06:05:39;;;;;;;3.17;1.88;;;28.10;93.90;;;;;;4953536;28;20039;-48
2022/08/02 06:08:08;;;;;;;2.22;1.70;;;28.70;92.30;;;;;;4953836;28;20027;-49
2022/08/02 06:10:35;;;;;;;2.60;2.30;;;28.70;92.00;;;;;;4953864;28;20023;-49
2022/08/02 06:13:04;;;;;;;2.95;2.65;;;28.60;91.70;;;;;;4953677;28;20031;-46
2022/08/02 06:15:29;;;;;;;2.25;2.15;;;28.20;91.80;;;;;;4956071;28;20401;-51
2022/08/02 06:17:57;;;;;;;2.20;2.10;;;28.00;92.70;;;;;;4954569;28;20031;-50
2022/08/02 06:20:25;;;;;;;3.10;2.42;;;28.10;92.10;;;;;;4954638;28;20027;-54
2022/08/02 06:22:53;;;;;;;2.53;2.42;;;27.60;92.40;;;;;;4954020;28;20412;-49
2022/08/02 06:25:20;;;;;;;2.60;2.40;;;27.10;93.10;;;;;;4954489;28;20031;-46
2022/08/02 06:27:48;;;;;;;2.92;2.72;;;26.70;94.00;;;;;;4954385;28;20058;-51
2022/08/02 06:30:14;;;;;;;3.80;2.70;;;26.30;94.40;;;;;;4953714;28;20038;-50
2022/08/02 06:32:40;;;;;;;5.07;2.60;;;26.30;95.40;;;;;;4954269;28;20019;-49
2022/08/02 06:35:06;;;;;;;2.60;2.40;;;26.50;94.50;;;;;;4953957;28;20029;-49
2022/08/02 06:37:43;;;;;;;4.28;2.47;;;26.80;93.90;;;;;;4954857;28;20039;-46
2022/08/02 06:40:09;;;;;;;3.17;2.25;;;27.50;93.50;;;;;;4953955;28;20062;-45
2022/08/02 06:42:48;;;;;;;2.58;2.03;;;27.90;92.50;;;;;;4952622;28;20067;-46
2022/08/02 06:45:14;;;;;;;3.67;2.20;;;27.70;92.50;;;;;;4952917;28;20074;-50
2022/08/02 06:47:40;;;;;;;3.75;1.90;;;27.70;92.80;;;;;;4955354;28;20037;-50
2022/08/02 06:50:06;;;;;;;1.70;1.60;;;27.90;92.20;;;;;;4957197;28;20102;-48
2022/08/02 06:52:31;;;;;;;2.60;2.40;;;27.90;92.70;;;;;;4957132;28;20035;-48
2022/08/02 06:55:00;;;;;;;4.38;2.67;;;28.00;92.50;;;;;;4956734;28;20027;-51
2022/08/02 06:57:27;;;;;;;5.80;2.00;;;28.40;92.20;;;;;;4957131;28;20031;-49
2022/08/02 06:59:53;;;;;;;2.45;2.17;;;29.40;91.40;;;;;;4956906;28;20114;-47
2022/08/02 07:02:19;;;;;;;3.58;2.25;;;30.30;89.90;;;;;;4955618;28;20118;-49
2022/08/02 07:04:44;;;;;;;3.17;1.90;;;30.60;89.00;;;;;;4963070;28;20035;-51
2022/08/02 07:07:10;;;;;;;4.35;2.15;;;31.10;87.70;;;;;;4967417;28;20055;-49
2022/08/02 07:09:36;;;;;;;8.05;2.08;;;32.00;86.50;;;;;;4965853;28;20032;-48
2022/08/02 07:12:01;;;;;;;4.10;1.70;;;32.70;83.00;;;;;;4962387;28;20042;-49
2022/08/02 07:14:27;;;;;;;6.43;2.05;;;32.80;81.20;;;;;;4962287;28;20023;-51
2022/08/02 07:16:53;;;;;;;2.13;1.50;;;32.80;80.90;;;;;;4962044;28;20027;-47
2022/08/02 07:19:18;;;;;;;1.70;1.60;;;32.90;80.50;;;;;;4960069;28;20039;-43
2022/08/02 07:21:44;;;;;;;2.58;1.35;;;33.20;79.60;;;;;;4945724;29;20388;-50
2022/08/02 07:24:10;;;;;;;4.22;1.48;;;33.30;78.50;;;;;;4937011;29;20035;-47
2022/08/02 07:26:35;;;;;;;3.40;1.67;;;32.80;78.70;;;;;;4948552;28;20432;-47
2022/08/02 07:29:01;;;;;;;1.40;1.30;;;33.10;79.00;;;;;;4958231;28;20027;-51
2022/08/02 07:31:27;;;;;;;1.05;0.98;;;33.30;77.30;;;;;;4958958;28;20019;-45
2022/08/02 07:33:53;;;;;;;2.15;1.42;;;33.70;77.50;;;;;;4958007;28;20055;-52
2022/08/02 07:36:18;;;;;;;1.23;1.15;;;34.10;76.00;;;;;;4958170;28;20069;-45
2022/08/02 07:38:44;;;;;;;1.42;1.33;;;34.20;75.40;;;;;;4959009;28;20468;-50
2022/08/02 07:41:09;;;;;;;4.65;1.50;;;34.60;74.30;;;;;;4959455;28;20137;-51
2022/08/02 07:43:35;;;;;;;1.70;1.23;;;34.00;75.20;;;;;;4960357;28;20023;-51
2022/08/02 07:46:00;;;;;;;1.70;1.25;;;33.90;74.90;;;;;;4974037;28;20559;-47
2022/08/02 07:48:26;;;;;;;5.93;1.38;;;34.30;74.00;;;;;;4962359;28;20035;-48
2022/08/02 07:50:52;;;;;;;1.45;1.20;;;34.50;72.60;;;;;;4959905;28;20055;-49
2022/08/02 07:53:17;;;;;;;1.05;0.93;;;35.00;72.30;;;;;;4958033;28;20028;-49
2022/08/02 07:55:43;;;;;;;1.60;1.50;;;35.30;70.50;;;;;;4958409;29;20103;-49
2022/08/02 07:58:09;;;;;;;5.38;1.40;;;35.70;70.40;;;;;;4960167;28;20462;-48
2022/08/02 08:00:34;;;;;;;5.05;1.10;;;36.10;69.70;;;;;;4964323;28;20524;-47
2022/08/02 08:03:00;;;;;;;1.58;1.10;;;36.00;69.70;;;;;;4963612;28;20200;-48
2022/08/02 08:05:25;;;;;;;2.35;1.33;;;35.80;68.60;;;;;;4962290;28;20106;-48
2022/08/02 08:07:51;;;;;;;3.15;1.00;;;35.60;69.00;;;;;;4961637;28;20031;-51
2022/08/02 08:10:17;;;;;;;2.53;1.13;;;35.60;68.60;;;;;;4960261;28;20034;-48
2022/08/02 08:12:42;;;;;;;2.78;1.10;;;35.70;67.10;;;;;;4960013;28;20035;-52
2022/08/02 08:15:09;;;;;;;0.80;0.80;;;35.80;66.80;;;;;;4960465;28;20031;-44
2022/08/02 08:17:36;;;;;;;1.40;1.10;;;36.50;65.00;;;;;;4960659;28;20055;-47
2022/08/02 08:20:04;;;;;;;0.75;0.75;;;36.90;64.60;;;;;;4957249;28;20563;-42
2022/08/02 08:22:29;;;;;;;2.67;1.17;;;37.10;63.80;;;;;;4958400;28;20494;-48
2022/08/02 08:24:55;;;;;;;1.67;1.00;;;36.60;62.90;;;;;;4957262;29;20039;-48
2022/08/02 08:27:21;;;;;;;7.28;1.00;;;36.30;63.60;;;;;;4957433;28;20035;-44
2022/08/02 08:29:47;;;;;;;0.75;0.75;;;36.00;63.00;;;;;;4956883;28;20023;-47
2022/08/02 08:32:13;;;;;;;1.05;0.95;;;36.00;62.50;;;;;;4957495;28;20641;-44
2022/08/02 08:34:39;;;;;;;2.10;1.00;;;36.30;63.00;;;;;;4954568;28;20024;-48
2022/08/02 08:37:07;;;;;;;4.53;1.05;;;36.90;60.90;;;;;;4954839;28;20034;-47
2022/08/02 08:39:33;;;;;;;0.80;0.80;;;36.70;60.70;;;;;;4956766;29;20019;-47
2022/08/02 08:41:58;;;;;;;3.90;0.80;;;36.20;60.40;;;;;;4961170;28;20397;-48
2022/08/02 08:44:26;;;;;;;3.55;0.60;;;36.20;59.30;;;;;;4956790;28;20451;-50
2022/08/02 08:46:55;;;;;;;0.82;0.63;;;36.10;59.90;;;;;;4958764;28;20038;-47
2022/08/02 08:49:31;;;;;;;0.70;0.70;;;35.80;60.00;;;;;;4962019;28;20027;-47
2022/08/02 08:52:03;;;;;;;2.85;0.88;;;35.10;60.20;;;;;;4961423;28;20031;-48
2022/08/02 08:54:30;;;;;;;2.40;1.00;;;34.50;61.30;;;;;;4960798;28;20063;-46
2022/08/02 08:56:57;;;;;;;0.75;0.75;;;34.10;61.80;;;;;;4962964;28;20031;-47
2022/08/02 08:59:23;;;;;;;1.38;1.10;;;34.00;62.80;;;;;;4964614;28;20026;-50
2022/08/02 09:01:50;;;;;;;3.10;1.00;;;33.80;62.80;;;;;;4964091;28;20086;-45
2022/08/02 09:04:16;;;;;;;3.22;1.50;;;33.90;64.10;;;;;;4964637;28;20035;-44
2022/08/02 09:06:42;;;;;;;1.27;1.13;;;33.70;63.90;;;;;;4972594;23;20090;-45
2022/08/02 09:09:07;;;;;;;2.17;1.20;;;33.20;64.60;;;;;;4954562;29;20027;-45
2022/08/02 09:11:33;;;;;;;1.73;1.00;;;32.90;64.20;;;;;;4954263;28;20123;-49
2022/08/02 09:14:00;;;;;;;12.05;9.98;;;32.60;64.40;;;;;;4954247;29;20094;-46
2022/08/02 09:16:28;;;;;;;2.15;1.98;;;32.50;64.20;;;;;;4953734;28;20031;-44
2022/08/02 09:18:54;;;;;;;1.25;0.75;;;32.30;64.20;;;;;;4954535;28;20027;-49
2022/08/02 09:21:19;;;;;;;1.50;1.15;;;32.00;64.50;;;;;;4954479;28;20409;-44
2022/08/02 09:23:50;;;;;;;2.03;1.00;;;31.60;64.40;;;;;;4952407;29;20109;-43
2022/08/02 09:26:22;;;;;;;2.17;1.00;;;31.40;65.30;;;;;;4950696;28;20055;-44
2022/08/02 09:28:51;;;;;;;1.10;1.00;;;31.40;65.80;;;;;;4935287;28;20097;-43
2022/08/02 09:31:21;;;;;;;3.20;1.20;;;31.60;64.80;;;;;;4941941;29;20042;-47
2022/08/02 09:33:54;;;;;;;3.05;0.90;;;31.60;64.50;;;;;;4953675;28;20078;-47
2022/08/02 09:36:21;;;;;;;6.53;1.15;;;31.80;65.50;;;;;;4944491;29;20074;-46
2022/08/02 09:38:56;;;;;;;0.88;0.88;;;32.10;65.20;;;;;;4953103;28;20520;-44
2022/08/02 09:41:25;;;;;;;2.53;1.10;;;32.00;64.60;;;;;;4953698;28;20083;-43
2022/08/02 09:43:51;;;;;;;1.15;0.85;;;32.10;65.00;;;;;;4953851;29;20548;-49
2022/08/02 09:46:25;;;;;;;3.80;1.15;;;32.00;64.80;;;;;;4954593;28;20082;-44
2022/08/02 09:48:57;;;;;;;0.90;0.90;;;31.90;65.20;;;;;;4954209;28;20030;-46
2022/08/02 09:51:30;;;;;;;5.55;1.00;;;31.90;64.30;;;;;;4954374;28;20102;-45
2022/08/02 09:53:58;;;;;;;0.80;0.80;;;31.40;64.10;;;;;;4953667;28;20034;-44
2022/08/02 09:56:25;;;;;;;3.13;0.90;;;31.20;64.60;;;;;;4953947;28;20114;-47
2022/08/02 09:58:53;;;;;;;1.85;1.17;;;31.30;64.20;;;;;;4953983;28;20027;-46
2022/08/02 10:01:20;;;;;;;2.83;0.80;;;31.20;64.70;;;;;;4934800;29;20548;-49
2022/08/02 10:03:57;;;;;;;0.90;0.90;;;31.20;64.30;;;;;;4971747;28;20219;-44
2022/08/02 10:06:23;;;;;;;1.88;1.20;;;31.10;64.00;;;;;;4972887;28;20492;-43
2022/08/02 10:08:49;;;;;;;1.55;0.82;;;31.30;65.20;;;;;;4973125;28;20066;-47
2022/08/02 10:11:15;;;;;;;2.08;1.20;;;31.30;65.90;;;;;;4972948;28;20026;-46
2022/08/02 10:13:42;;;;;;;22.60;16.88;;;31.40;65.50;;;;;;4972685;28;20027;-47
2022/08/02 10:16:07;;;;;;;7.32;6.53;;;31.40;66.30;;;;;;4972853;28;20034;-45
2022/08/02 10:18:33;;;;;;;4.28;3.88;;;31.30;65.80;;;;;;4968169;28;20046;-49
2022/08/02 10:21:01;;;;;;;0.85;0.85;;;31.00;64.60;;;;;;4952175;28;20031;-49
2022/08/02 10:23:32;;;;;;;2.05;1.10;;;30.60;64.70;;;;;;4950750;28;20604;-46
2022/08/02 10:26:02;;;;;;;1.40;1.10;;;30.10;65.70;;;;;;4952732;29;20027;-48
2022/08/02 10:28:30;;;;;;;1.65;0.80;;;29.60;66.40;;;;;;4953099;28;20513;-47
2022/08/02 10:30:58;;;;;;;1.02;0.75;;;29.50;67.10;;;;;;4934356;29;20028;-48
2022/08/02 10:33:25;;;;;;;0.82;0.80;;;29.30;67.40;;;;;;4940693;29;20505;-44
2022/08/02 10:35:53;;;;;;;1.40;0.80;;;29.40;67.20;;;;;;4952831;28;20420;-46
2022/08/02 10:38:19;;;;;;;1.10;1.02;;;29.50;67.30;;;;;;4953364;28;20020;-47
2022/08/02 10:40:55;;;;;;;1.38;1.00;;;29.60;67.20;;;;;;4954078;28;20051;-46
2022/08/02 10:43:35;;;;;;;1.48;0.90;;;29.50;66.20;;;;;;4952884;28;20035;-44
2022/08/02 10:46:30;;;;;;;1.35;0.73;;;29.30;66.20;;;;;;4951404;29;20032;-46
2022/08/02 10:49:21;;;;;;;2.85;0.82;;;29.20;68.50;;;;;;4953252;28;20389;-45
2022/08/02 10:52:01;;;;;;;1.35;0.82;;;29.20;67.60;;;;;;4934184;29;20130;-44
2022/08/02 10:54:36;;;;;;;0.93;0.90;;;29.20;66.40;;;;;;4933855;29;20054;-44
2022/08/02 10:57:02;;;;;;;0.70;0.70;;;29.30;66.40;;;;;;4933955;29;20374;-43
2022/08/02 10:59:34;;;;;;;0.75;0.73;;;29.20;67.20;;;;;;4934140;29;20032;-46
2022/08/02 11:02:01;;;;;;;0.75;0.73;;;29.10;67.80;;;;;;4939024;29;20396;-44
2022/08/02 11:04:50;;;;;;;0.98;0.80;;;29.00;67.40;;;;;;4952803;28;20031;-46
2022/08/02 11:07:30;;;;;;;0.98;0.77;;;28.90;68.10;;;;;;4952722;29;20035;-44
2022/08/02 11:09:58;;;;;;;0.85;0.85;;;28.90;68.40;;;;;;4953066;28;20034;-42
2022/08/02 11:12:23;;;;;;;2.40;0.90;;;29.00;68.20;;;;;;4952926;28;20019;-49
2022/08/02 11:15:02;;;;;;;0.90;0.90;;;28.90;67.50;;;;;;4951205;29;20030;-46
2022/08/02 11:17:52;;;;;;;1.08;0.80;;;28.80;67.40;;;;;;4952999;28;20023;-47
2022/08/02 11:20:19;;;;;;;1.42;0.77;;;28.70;67.50;;;;;;4953077;28;20035;-44
2022/08/02 11:22:47;;;;;;;0.90;0.90;;;28.70;69.20;;;;;;4952314;28;20035;-46
2022/08/02 11:25:22;;;;;;;2.15;1.13;;;28.60;67.90;;;;;;4952400;28;20548;-46
2022/08/02 11:27:58;;;;;;;1.48;0.68;;;28.60;67.60;;;;;;4955050;28;20022;-51
2022/08/02 11:30:25;;;;;;;0.60;0.60;;;28.60;68.10;;;;;;4952193;28;20019;-56
2022/08/02 11:32:55;;;;;;;0.85;0.85;;;28.50;68.50;;;;;;4953463;28;20461;-44
2022/08/02 11:35:21;;;;;;;1.50;0.80;;;28.50;68.00;;;;;;4956215;28;20515;-47
2022/08/02 11:37:47;;;;;;;1.20;0.90;;;28.40;67.70;;;;;;4956135;29;20027;-46
2022/08/02 11:40:17;;;;;;;3.85;0.98;;;28.30;66.90;;;;;;4956233;29;20024;-43
2022/08/02 11:42:46;;;;;;;1.85;1.10;;;28.30;68.50;;;;;;4955978;28;20038;-42
2022/08/02 11:45:15;;;;;;;0.98;0.98;;;28.40;68.10;;;;;;4955752;28;20022;-45
2022/08/02 11:47:49;;;;;;;1.85;1.33;;;28.30;68.30;;;;;;4956020;28;20023;-45
2022/08/02 11:50:16;;;;;;;2.47;1.10;;;28.40;68.00;;;;;;4955999;28;20034;-43
2022/08/02 11:52:42;;;;;;;0.75;0.75;;;28.30;67.30;;;;;;4956197;28;20027;-50
2022/08/02 11:55:09;;;;;;;1.27;1.02;;;28.30;67.10;;;;;;4954920;28;20127;-49
2022/08/02 11:57:35;;;;;;;0.93;0.93;;;28.40;67.20;;;;;;4955998;28;20532;-46
2022/08/02 12:00:01;;;;;;;0.88;0.88;;;28.40;67.10;;;;;;4955906;28;20027;-47
2022/08/02 12:02:30;;;;;;;0.90;0.88;;;28.30;65.50;;;;;;4955632;28;20451;-42
2022/08/02 12:05:05;;;;;;;0.75;0.75;;;28.30;65.40;;;;;;4955313;28;20024;-44
2022/08/02 12:07:33;;;;;;;4.25;1.23;;;28.30;66.40;;;;;;4955826;28;20413;-41
2022/08/02 12:10:01;;;;;;;7.53;2.63;;;28.30;66.00;;;;;;4955833;28;20023;-44
2022/08/02 12:12:27;;;;;;;25.65;19.75;;;28.40;65.30;;;;;;4955774;28;20038;-43
2022/08/02 12:14:52;;;;;;;2.88;2.08;;;28.40;65.20;;;;;;4953989;29;20030;-43
2022/08/02 12:20:08;;;;;;;1.42;0.93;;;28.50;65.10;;;;;;4955986;29;20416;-45
2022/08/02 12:22:35;;;;;;;2.20;1.05;;;28.60;65.70;;;;;;4956158;28;20034;-42
2022/08/02 12:25:18;;;;;;;2.00;0.98;;;28.80;65.70;;;;;;4955557;28;20469;-46
2022/08/02 12:27:43;;;;;;;1.02;0.93;;;29.00;66.50;;;;;;4955857;28;20032;-46
2022/08/02 12:30:13;;;;;;;0.80;0.80;;;29.10;64.20;;;;;;4956017;29;20034;-44
2022/08/02 12:32:39;;;;;;;2.67;0.88;;;29.20;64.10;;;;;;4955665;28;20031;-44
2022/08/02 12:35:14;;;;;;;5.93;1.02;;;29.10;63.50;;;;;;4954806;28;20511;-43
2022/08/02 12:37:43;;;;;;;1.48;0.88;;;28.90;63.50;;;;;;4955325;28;20098;-45
2022/08/02 12:40:31;;;;;;;1.35;1.10;;;28.90;63.80;;;;;;4955248;28;20031;-43
2022/08/02 12:42:57;;;;;;;3.97;1.00;;;28.90;64.20;;;;;;4955203;28;20038;-41
2022/08/02 12:45:24;;;;;;;1.38;1.27;;;28.80;64.40;;;;;;4954966;28;20030;-42
2022/08/02 12:47:52;;;;;;;1.95;0.98;;;28.70;64.90;;;;;;4954365;29;20049;-43
2022/08/02 12:50:22;;;;;;;0.85;0.85;;;28.70;64.20;;;;;;4955351;28;20030;-43
2022/08/02 12:52:49;;;;;;;0.80;0.80;;;28.80;64.10;;;;;;4955290;28;20441;-39
2022/08/02 12:55:21;;;;;;;0.82;0.82;;;28.80;64.40;;;;;;4954138;28;20037;-45